Alliance, Nebraska
Current Conditions -  °F | °C
As of 6:53 AM on Saturday 20 Dec 2014 (Local Time) from KAIA Reporting Station
Clear Clear  
Wind Chill:   Ceiling: Unl
Heat Index: 11°   Visibility: 10mi
Dew Point:   Wind: 5mph
Humidity: 88%   Direction: 260°W
Pressure: 29.95"   Gusts: NA
Location:  42.1°N, 102.87°W
Report Text: KAIA 201353Z AUTO 26004KT 10SM CLR M12/M13 A2995 RMK AO2 SLP197 T11171133
Loading
Personal Weather Stations






























Interactive Weather Map New forecast layout! Learn more

10-Day Weather Forecast

Advertisements
Track Severe Weather on mobile